createdAt,value
2022-10-05T00:01:27.752Z,99.90
2022-10-05T00:04:18.632Z,99.90
2022-10-05T00:06:56.771Z,99.90
2022-10-05T00:09:24.438Z,99.90
2022-10-05T00:11:52.063Z,99.90
2022-10-05T00:14:35.901Z,99.90
2022-10-05T00:17:05.180Z,99.90
2022-10-05T00:19:37.924Z,99.90
2022-10-05T00:22:15.683Z,99.90
2022-10-05T00:24:44.536Z,99.90
2022-10-05T00:27:19.027Z,99.90
2022-10-05T00:29:48.819Z,99.90
2022-10-05T00:32:16.574Z,99.90
2022-10-05T00:34:45.155Z,99.90
2022-10-05T00:37:14.514Z,99.90
2022-10-05T00:39:42.600Z,99.90
2022-10-05T00:42:38.250Z,99.90
2022-10-05T00:45:18.836Z,99.90
2022-10-05T00:47:58.299Z,99.90
2022-10-05T00:50:52.260Z,99.90
2022-10-05T00:53:42.991Z,99.90
2022-10-05T00:56:36.987Z,99.90
2022-10-05T00:59:07.137Z,99.90
2022-10-05T01:01:52.068Z,99.90
2022-10-05T01:04:31.773Z,99.90
2022-10-05T01:07:30.388Z,99.90
2022-10-05T01:10:15.993Z,99.90
2022-10-05T01:12:56.724Z,99.90
2022-10-05T01:15:47.161Z,99.90
2022-10-05T01:18:29.746Z,99.90
2022-10-05T01:21:10.847Z,99.90
2022-10-05T01:23:52.192Z,99.90
2022-10-05T01:26:34.645Z,99.90
2022-10-05T01:29:05.044Z,99.90
2022-10-05T01:31:45.733Z,99.90
2022-10-05T01:34:28.391Z,99.90
2022-10-05T01:37:11.919Z,99.90
2022-10-05T01:39:48.191Z,99.90
2022-10-05T01:42:37.445Z,99.90
2022-10-05T01:45:29.062Z,99.90
2022-10-05T01:48:51.915Z,99.90
2022-10-05T01:51:37.388Z,99.90
2022-10-05T01:54:32.361Z,99.90
2022-10-05T01:57:21.590Z,99.90
2022-10-05T02:00:08.984Z,99.90
2022-10-05T02:03:05.732Z,99.90
2022-10-05T02:05:48.033Z,99.90
2022-10-05T02:08:27.413Z,99.90
2022-10-05T02:11:08.411Z,99.90
2022-10-05T02:14:02.747Z,99.90
2022-10-05T02:16:46.716Z,99.90
2022-10-05T02:19:20.453Z,99.90
2022-10-05T02:21:58.252Z,99.90
2022-10-05T02:24:31.194Z,99.90
2022-10-05T02:26:59.049Z,99.90
2022-10-05T02:29:29.283Z,99.90
2022-10-05T02:32:04.670Z,99.90
2022-10-05T02:34:42.862Z,99.90
2022-10-05T02:37:43.168Z,99.90
2022-10-05T02:40:39.159Z,99.90
2022-10-05T02:43:20.908Z,99.90
2022-10-05T02:45:53.993Z,99.90
2022-10-05T02:48:53.533Z,99.90
2022-10-05T02:51:37.127Z,99.90
2022-10-05T02:54:10.728Z,99.90
2022-10-05T02:56:52.004Z,99.90
2022-10-05T02:59:40.495Z,99.90
2022-10-05T03:02:31.481Z,99.90
2022-10-05T03:05:04.983Z,99.90
2022-10-05T03:07:45.736Z,99.90
2022-10-05T03:10:28.476Z,99.90
2022-10-05T03:13:02.707Z,99.90
2022-10-05T03:15:54.047Z,99.90
2022-10-05T03:18:50.617Z,99.90
2022-10-05T03:21:30.140Z,99.90
2022-10-05T03:24:20.230Z,99.90
2022-10-05T03:27:05.134Z,99.90
2022-10-05T03:29:55.624Z,99.90
2022-10-05T03:32:32.902Z,99.90
2022-10-05T03:35:13.205Z,99.90
2022-10-05T03:38:21.848Z,99.90
2022-10-05T03:41:11.765Z,99.90
2022-10-05T03:44:18.022Z,99.90
2022-10-05T03:46:51.638Z,99.90
2022-10-05T03:49:47.941Z,99.90
2022-10-05T03:52:34.308Z,99.90
2022-10-05T03:55:04.133Z,99.90
2022-10-05T03:57:38.167Z,99.90
2022-10-05T04:00:23.189Z,99.90
2022-10-05T04:03:21.279Z,99.90
2022-10-05T04:05:53.783Z,99.90
2022-10-05T04:08:32.952Z,99.90
2022-10-05T04:11:07.508Z,99.90
2022-10-05T04:13:40.661Z,99.90
2022-10-05T04:16:34.632Z,99.90
2022-10-05T04:19:23.339Z,99.90
2022-10-05T04:22:09.043Z,99.90
2022-10-05T04:25:06.407Z,99.90
2022-10-05T04:27:41.651Z,99.90
2022-10-05T04:30:19.370Z,99.90
2022-10-05T04:32:54.990Z,99.90
2022-10-05T04:35:31.753Z,99.90
2022-10-05T04:38:20.440Z,99.90
2022-10-05T04:41:26.716Z,99.90
2022-10-05T04:44:12.909Z,99.90
2022-10-05T04:46:57.173Z,99.90
2022-10-05T04:49:38.831Z,99.90
2022-10-05T04:52:23.402Z,99.90
2022-10-05T04:55:09.219Z,99.90
2022-10-05T04:58:05.507Z,99.90
2022-10-05T05:00:58.447Z,99.90
2022-10-05T05:03:45.708Z,99.90
2022-10-05T05:06:39.024Z,99.90
2022-10-05T05:09:18.244Z,99.90
2022-10-05T05:12:03.795Z,99.90
2022-10-05T05:14:46.682Z,99.90
2022-10-05T05:17:32.893Z,99.90
2022-10-05T05:20:26.974Z,99.90
2022-10-05T05:23:12.739Z,99.90
2022-10-05T05:25:52.318Z,99.90
2022-10-05T05:28:29.588Z,99.90
2022-10-05T05:31:02.763Z,99.90
2022-10-05T05:33:39.488Z,99.90
2022-10-05T05:36:12.796Z,99.90
2022-10-05T05:39:20.811Z,99.90
2022-10-05T05:42:11.989Z,99.90
2022-10-05T05:44:50.674Z,99.90
2022-10-05T05:47:51.998Z,99.90
2022-10-05T05:50:38.585Z,99.90
2022-10-05T05:53:29.449Z,99.90
2022-10-05T05:56:10.219Z,99.90
2022-10-05T05:58:53.521Z,99.90
2022-10-05T06:01:34.232Z,99.90
2022-10-05T06:04:26.530Z,99.90
2022-10-05T06:06:58.028Z,99.90
2022-10-05T06:09:47.220Z,99.90
2022-10-05T06:12:27.192Z,99.90
2022-10-05T06:15:29.297Z,99.90
2022-10-05T06:18:01.547Z,99.90
2022-10-05T06:20:36.895Z,99.90
2022-10-05T06:23:13.886Z,99.90
2022-10-05T06:25:55.677Z,99.90
2022-10-05T06:28:26.293Z,99.90
2022-10-05T06:31:11.044Z,99.90
2022-10-05T06:34:22.306Z,99.90
2022-10-05T06:37:00.054Z,99.90
2022-10-05T06:40:01.373Z,99.90
2022-10-05T06:42:47.305Z,99.90
2022-10-05T06:45:59.212Z,99.90
2022-10-05T06:49:02.146Z,99.90
2022-10-05T06:52:01.442Z,99.90
2022-10-05T06:54:43.245Z,99.90
2022-10-05T06:57:21.296Z,99.90
2022-10-05T07:00:01.983Z,99.90
2022-10-05T07:02:53.164Z,99.90
2022-10-05T07:05:44.562Z,99.90
2022-10-05T07:08:27.025Z,99.90
2022-10-05T07:11:34.757Z,99.90
2022-10-05T07:14:13.685Z,99.90
2022-10-05T07:16:54.807Z,99.90
2022-10-05T07:19:54.951Z,99.90
2022-10-05T07:22:46.423Z,99.90
2022-10-05T07:25:22.812Z,99.90
2022-10-05T07:28:06.669Z,99.90
2022-10-05T07:31:02.074Z,99.90
2022-10-05T07:33:51.444Z,99.90
2022-10-05T07:36:41.877Z,99.90
2022-10-05T07:39:14.884Z,99.90
2022-10-05T07:41:47.773Z,99.90
2022-10-05T07:44:36.967Z,99.90
2022-10-05T07:47:31.972Z,99.90
2022-10-05T07:50:12.009Z,99.90
2022-10-05T07:52:43.261Z,99.90
2022-10-05T07:55:20.307Z,99.90
2022-10-05T07:58:23.625Z,99.90
2022-10-05T08:01:13.243Z,99.90
2022-10-05T08:04:11.066Z,99.90
2022-10-05T08:07:06.843Z,99.90
2022-10-05T08:10:15.627Z,99.90
2022-10-05T08:12:55.275Z,99.90
2022-10-05T08:15:33.079Z,99.90
2022-10-05T08:18:05.530Z,99.90
2022-10-05T08:20:54.709Z,99.90
2022-10-05T08:23:46.896Z,99.90
2022-10-05T08:26:32.972Z,99.90
2022-10-05T08:29:00.579Z,99.90
2022-10-05T08:31:38.014Z,99.90
2022-10-05T08:34:27.400Z,99.90
2022-10-05T08:37:08.999Z,99.90
2022-10-05T08:39:42.560Z,99.90
2022-10-05T08:42:30.305Z,99.90
2022-10-05T08:45:30.268Z,99.90
2022-10-05T08:48:31.818Z,99.90
2022-10-05T08:50:59.250Z,99.90
2022-10-05T08:53:38.494Z,99.90
2022-10-05T08:56:19.758Z,99.90
2022-10-05T08:59:00.048Z,99.90
2022-10-05T09:01:43.843Z,99.90
2022-10-05T09:04:38.144Z,99.90
2022-10-05T09:07:40.954Z,99.90
2022-10-05T09:10:48.875Z,99.90
2022-10-05T09:13:49.410Z,99.90
2022-10-05T09:16:41.468Z,99.90
2022-10-05T09:19:39.500Z,99.90
2022-10-05T09:22:37.876Z,99.90
2022-10-05T09:25:26.324Z,99.90
2022-10-05T09:28:16.087Z,99.90
2022-10-05T09:31:20.734Z,99.90
2022-10-05T09:33:57.761Z,99.80
2022-10-05T09:36:56.822Z,99.70
2022-10-05T09:39:51.057Z,99.10
2022-10-05T09:42:40.219Z,99.40
2022-10-05T09:45:35.675Z,99.40
2022-10-05T09:48:41.519Z,99.30
2022-10-05T09:51:18.019Z,99.30
2022-10-05T09:53:57.003Z,99.20
2022-10-05T09:56:57.425Z,99.30
2022-10-05T09:59:31.303Z,99.00
2022-10-05T10:02:20.722Z,99.00
2022-10-05T10:05:06.823Z,99.10
2022-10-05T10:08:06.891Z,98.80
2022-10-05T10:10:55.988Z,98.30
2022-10-05T10:13:45.630Z,98.30
2022-10-05T10:16:17.821Z,98.30
2022-10-05T10:18:48.535Z,97.90
2022-10-05T10:21:42.337Z,97.50
2022-10-05T10:24:14.722Z,97.50
2022-10-05T10:27:16.533Z,97.50
2022-10-05T10:29:55.488Z,97.50
2022-10-05T10:32:44.949Z,97.60
2022-10-05T10:35:22.070Z,97.20
2022-10-05T10:38:22.133Z,97.20
2022-10-05T10:40:55.683Z,96.90
2022-10-05T10:43:54.015Z,97.10
2022-10-05T10:46:49.224Z,97.00
2022-10-05T10:49:54.633Z,97.10
2022-10-05T10:52:47.988Z,97.00
2022-10-05T10:55:31.652Z,97.30
2022-10-05T10:58:15.739Z,97.40
2022-10-05T11:01:01.304Z,97.40
2022-10-05T11:03:50.223Z,97.50
2022-10-05T11:06:36.722Z,97.50
2022-10-05T11:09:12.864Z,97.40
2022-10-05T11:12:01.670Z,97.30
2022-10-05T11:15:00.744Z,96.90
2022-10-05T11:17:41.329Z,96.70
2022-10-05T11:20:42.731Z,96.30
2022-10-05T11:23:40.214Z,96.10
2022-10-05T11:26:45.456Z,96.10
2022-10-05T11:29:38.610Z,95.70
2022-10-05T11:32:32.234Z,95.70
2022-10-05T11:35:34.342Z,95.60
2022-10-05T11:38:39.167Z,95.60
2022-10-05T11:41:16.911Z,95.70
2022-10-05T11:43:53.234Z,95.90
2022-10-05T11:46:38.191Z,95.80
2022-10-05T11:49:28.657Z,96.10
2022-10-05T11:52:21.174Z,96.40
2022-10-05T11:55:13.437Z,96.30
2022-10-05T11:58:07.448Z,96.40
2022-10-05T12:00:42.741Z,96.70
2022-10-05T12:03:36.562Z,96.80
2022-10-05T12:06:23.392Z,96.90
2022-10-05T12:09:23.849Z,97.10
2022-10-05T12:12:22.020Z,97.20
2022-10-05T12:14:52.588Z,97.30
2022-10-05T12:17:38.668Z,97.40
2022-10-05T12:20:23.733Z,97.50
2022-10-05T12:23:00.554Z,97.60
2022-10-05T12:25:57.223Z,97.60
2022-10-05T12:28:34.532Z,97.70
2022-10-05T12:31:12.762Z,97.90
2022-10-05T12:34:25.788Z,98.10
2022-10-05T12:37:13.569Z,98.40
2022-10-05T12:39:46.900Z,99.00
2022-10-05T12:42:32.481Z,99.60
2022-10-05T12:45:05.686Z,99.90
2022-10-05T12:47:53.503Z,99.90
2022-10-05T12:50:38.510Z,99.90
2022-10-05T12:53:24.646Z,99.90
2022-10-05T12:56:24.015Z,99.90
2022-10-05T12:59:20.021Z,99.90
2022-10-05T13:02:06.343Z,99.90
2022-10-05T13:04:42.844Z,99.90
2022-10-05T13:07:28.444Z,99.90
2022-10-05T13:10:24.634Z,99.90
2022-10-05T13:13:21.005Z,99.90
2022-10-05T13:16:17.797Z,99.90
2022-10-05T13:18:56.639Z,99.90
2022-10-05T13:21:28.114Z,99.90
2022-10-05T13:24:01.474Z,99.90
2022-10-05T13:26:41.966Z,99.90
2022-10-05T13:29:37.210Z,99.90
2022-10-05T13:32:23.114Z,99.90
2022-10-05T13:35:20.909Z,99.90
2022-10-05T13:38:03.514Z,99.90
2022-10-05T13:41:24.471Z,99.90
2022-10-05T13:43:54.645Z,99.90
2022-10-05T13:46:33.311Z,99.90
2022-10-05T13:49:21.845Z,99.90
2022-10-05T13:52:16.301Z,99.90
2022-10-05T13:54:55.486Z,99.90
2022-10-05T13:57:47.139Z,99.90
2022-10-05T14:00:16.674Z,99.90
2022-10-05T14:02:49.164Z,99.90
2022-10-05T14:05:18.731Z,99.90
2022-10-05T14:07:58.493Z,99.90
2022-10-05T14:10:42.856Z,99.90
2022-10-05T14:13:38.360Z,99.90
2022-10-05T14:16:23.813Z,99.90
2022-10-05T14:18:57.774Z,99.90
2022-10-05T14:21:42.552Z,99.90
2022-10-05T14:24:43.146Z,99.90
2022-10-05T14:27:33.046Z,99.90
2022-10-05T14:30:12.514Z,99.90
2022-10-05T14:33:03.029Z,99.90
2022-10-05T14:35:52.215Z,99.90
2022-10-05T14:38:31.637Z,99.90
2022-10-05T14:41:13.142Z,99.90
2022-10-05T14:43:53.857Z,99.90
2022-10-05T14:46:29.092Z,99.90
2022-10-05T14:49:23.193Z,99.90
2022-10-05T14:51:52.054Z,99.90
2022-10-05T14:54:28.630Z,99.90
2022-10-05T14:57:32.048Z,99.90
2022-10-05T15:00:14.303Z,99.90
2022-10-05T15:03:19.453Z,99.90
2022-10-05T15:05:54.409Z,99.90
2022-10-05T15:08:45.106Z,99.90
2022-10-05T15:11:17.258Z,99.90
2022-10-05T15:13:48.607Z,99.90
2022-10-05T15:16:26.264Z,99.90
2022-10-05T15:19:16.004Z,99.90
2022-10-05T15:22:11.663Z,99.90
2022-10-05T15:24:44.155Z,99.90
2022-10-05T15:27:37.119Z,99.90
2022-10-05T15:30:19.192Z,99.90
2022-10-05T15:33:10.562Z,99.90
2022-10-05T15:35:40.791Z,99.90
2022-10-05T15:38:27.159Z,99.90
2022-10-05T15:41:05.908Z,99.90
2022-10-05T15:44:06.654Z,99.90
2022-10-05T15:46:44.926Z,99.90
2022-10-05T15:49:20.906Z,99.90
2022-10-05T15:52:02.350Z,99.90
2022-10-05T15:54:53.362Z,99.90
2022-10-05T15:57:52.679Z,99.90
2022-10-05T16:00:22.296Z,99.90
2022-10-05T16:03:11.284Z,99.90
2022-10-05T16:06:03.684Z,99.90
2022-10-05T16:08:54.113Z,99.90
2022-10-05T16:11:40.462Z,99.90
2022-10-05T16:14:21.725Z,99.90
2022-10-05T16:17:01.213Z,99.90
2022-10-05T16:19:57.259Z,99.90
2022-10-05T16:22:59.622Z,99.90
2022-10-05T16:25:30.514Z,99.90
2022-10-05T16:28:05.707Z,99.90
2022-10-05T16:30:55.154Z,99.90
2022-10-05T16:33:46.771Z,99.90
2022-10-05T16:36:39.617Z,99.90
2022-10-05T16:39:38.635Z,99.90
2022-10-05T16:42:24.219Z,99.90
2022-10-05T16:45:15.978Z,99.90
2022-10-05T16:47:57.054Z,99.90
2022-10-05T16:50:37.072Z,99.90
2022-10-05T16:53:10.503Z,99.90
2022-10-05T16:55:43.711Z,99.90
2022-10-05T16:58:22.055Z,99.90
2022-10-05T17:01:04.632Z,99.90
2022-10-05T17:03:32.118Z,99.90
2022-10-05T17:06:20.582Z,99.90
2022-10-05T17:09:10.481Z,99.90
2022-10-05T17:11:48.610Z,99.90
2022-10-05T17:14:50.279Z,99.90
2022-10-05T17:17:45.075Z,99.90
2022-10-05T17:20:29.050Z,99.90
2022-10-05T17:23:04.338Z,99.90
2022-10-05T17:25:50.191Z,99.90
2022-10-05T17:28:25.185Z,99.90
2022-10-05T17:30:56.110Z,99.90
2022-10-05T17:33:29.925Z,99.90
2022-10-05T17:36:04.731Z,99.90
2022-10-05T17:38:34.087Z,99.90
2022-10-05T17:41:03.307Z,99.90
2022-10-05T17:43:32.414Z,99.90
2022-10-05T17:46:06.656Z,99.90
2022-10-05T17:48:49.428Z,99.90
2022-10-05T17:51:47.525Z,99.90
2022-10-05T17:54:48.077Z,99.90
2022-10-05T17:57:27.842Z,99.90
2022-10-05T17:59:58.047Z,99.90
2022-10-05T18:02:42.899Z,99.90
2022-10-05T18:05:14.503Z,99.90
2022-10-05T18:07:48.490Z,99.90
2022-10-05T18:10:29.735Z,99.90
2022-10-05T18:13:00.300Z,99.90
2022-10-05T18:15:27.815Z,99.90
2022-10-05T18:18:20.356Z,99.90
2022-10-05T18:21:05.952Z,99.90
2022-10-05T18:23:36.273Z,99.90
2022-10-05T18:26:32.386Z,99.90
2022-10-05T18:29:43.725Z,99.90
2022-10-05T18:32:38.800Z,99.90
2022-10-05T18:35:31.037Z,99.90
2022-10-05T18:38:31.083Z,99.90
2022-10-05T18:41:40.602Z,99.90
2022-10-05T18:44:12.178Z,99.90
2022-10-05T18:47:01.415Z,99.90
2022-10-05T18:49:55.848Z,99.90
2022-10-05T18:52:42.414Z,99.90
2022-10-05T18:55:23.959Z,99.90
2022-10-05T18:58:10.109Z,99.90
2022-10-05T19:00:52.354Z,99.90
2022-10-05T19:03:29.362Z,99.90
2022-10-05T19:06:13.017Z,99.90
2022-10-05T19:08:46.879Z,99.90
2022-10-05T19:11:52.684Z,99.90
2022-10-05T19:15:13.714Z,99.90
2022-10-05T19:17:43.981Z,99.90
2022-10-05T19:20:19.183Z,99.90
2022-10-05T19:22:52.829Z,99.90
2022-10-05T19:25:37.354Z,99.90
2022-10-05T19:28:16.607Z,99.90
2022-10-05T19:31:23.631Z,99.90
2022-10-05T19:34:02.439Z,99.90
2022-10-05T19:36:50.711Z,99.90
2022-10-05T19:39:46.926Z,99.90
2022-10-05T19:42:20.675Z,99.90
2022-10-05T19:45:12.464Z,99.90
2022-10-05T19:47:45.712Z,99.90
2022-10-05T19:50:32.658Z,99.90
2022-10-05T19:53:45.218Z,99.90
2022-10-05T19:56:33.468Z,99.90
2022-10-05T19:59:17.094Z,99.90
2022-10-05T20:01:50.819Z,99.90
2022-10-05T20:04:38.397Z,99.90
2022-10-05T20:07:05.930Z,99.90
2022-10-05T20:09:55.367Z,99.90
2022-10-05T20:12:23.102Z,99.90
2022-10-05T20:15:26.752Z,99.90
2022-10-05T20:18:12.618Z,99.90
2022-10-05T20:20:47.097Z,99.90
2022-10-05T20:23:24.638Z,99.90
2022-10-05T20:26:11.293Z,99.90
2022-10-05T20:28:38.826Z,99.90
2022-10-05T20:31:08.337Z,99.90
2022-10-05T20:33:35.968Z,99.90
2022-10-05T20:36:04.202Z,99.90
2022-10-05T20:38:31.953Z,99.90
2022-10-05T20:40:59.580Z,99.90
2022-10-05T20:43:28.085Z,99.90
2022-10-05T20:45:55.676Z,99.90
2022-10-05T20:48:23.289Z,99.90
2022-10-05T20:50:50.751Z,99.90
2022-10-05T20:53:18.200Z,99.90
2022-10-05T20:55:45.620Z,99.90
2022-10-05T20:58:13.077Z,99.90
2022-10-05T21:00:59.227Z,99.90
2022-10-05T21:03:27.023Z,99.90
2022-10-05T21:05:54.483Z,99.90
2022-10-05T21:08:21.995Z,99.90
2022-10-05T21:10:50.388Z,99.90
2022-10-05T21:13:18.394Z,99.90
2022-10-05T21:15:45.876Z,99.90
2022-10-05T21:18:17.134Z,99.90
2022-10-05T21:20:46.535Z,99.90
2022-10-05T21:23:13.989Z,99.90
2022-10-05T21:25:41.400Z,99.90
2022-10-05T21:28:09.117Z,99.90
2022-10-05T21:30:36.623Z,99.90
2022-10-05T21:33:04.224Z,99.90
2022-10-05T21:35:31.669Z,99.90
2022-10-05T21:37:59.134Z,99.90
2022-10-05T21:40:26.587Z,99.90
2022-10-05T21:42:54.006Z,99.90
2022-10-05T21:45:21.729Z,99.90
2022-10-05T21:47:49.318Z,99.90
2022-10-05T21:50:17.069Z,99.90
2022-10-05T21:52:44.591Z,99.90
2022-10-05T21:55:12.189Z,99.90
2022-10-05T21:57:40.880Z,99.90
2022-10-05T22:00:09.473Z,99.90
2022-10-05T22:02:37.411Z,99.90
2022-10-05T22:05:05.054Z,99.90
2022-10-05T22:07:32.486Z,99.90
2022-10-05T22:10:01.476Z,99.90
2022-10-05T22:12:29.051Z,99.90
2022-10-05T22:14:56.479Z,99.90
2022-10-05T22:17:28.005Z,99.90
2022-10-05T22:19:55.752Z,99.90
2022-10-05T22:22:23.476Z,99.90
2022-10-05T22:24:52.129Z,99.90
2022-10-05T22:27:21.967Z,99.90
2022-10-05T22:29:51.188Z,99.90
2022-10-05T22:32:18.627Z,99.90
2022-10-05T22:34:46.343Z,99.90
2022-10-05T22:37:15.307Z,99.90
2022-10-05T22:39:43.628Z,99.90
2022-10-05T22:42:11.119Z,99.90
2022-10-05T22:44:40.220Z,99.90
2022-10-05T22:47:07.863Z,99.90
2022-10-05T22:49:35.338Z,99.90
2022-10-05T22:52:03.170Z,99.90
2022-10-05T22:54:32.515Z,99.90
2022-10-05T22:57:03.126Z,99.90
2022-10-05T22:59:31.014Z,99.90
2022-10-05T23:01:58.690Z,99.90
2022-10-05T23:04:26.319Z,99.90
2022-10-05T23:06:53.754Z,99.90
2022-10-05T23:09:21.196Z,99.90
2022-10-05T23:11:52.024Z,99.90
2022-10-05T23:14:20.063Z,99.90
2022-10-05T23:16:47.967Z,99.90
2022-10-05T23:19:15.549Z,99.90
2022-10-05T23:21:43.105Z,99.90
2022-10-05T23:24:10.479Z,99.90
2022-10-05T23:26:37.939Z,99.90
2022-10-05T23:29:05.391Z,99.90
2022-10-05T23:31:33.560Z,99.90
2022-10-05T23:34:01.016Z,99.90
2022-10-05T23:36:32.982Z,99.90
2022-10-05T23:39:00.671Z,99.90
2022-10-05T23:41:28.224Z,99.90
2022-10-05T23:43:55.827Z,99.90
2022-10-05T23:46:24.519Z,99.90
2022-10-05T23:48:53.141Z,99.90
2022-10-05T23:51:20.689Z,99.90
2022-10-05T23:53:48.128Z,99.90
2022-10-05T23:56:15.599Z,99.90
2022-10-05T23:58:43.235Z,99.90
